sensor_id;sensor_type;location;lat;lon;timestamp;P1;durP1;ratioP1;P2;durP2;ratioP2
8333;SDS011;4204;43.004;23.052;2023-07-13T00:01:17;8.63;;;7.73;;
8333;SDS011;4204;43.004;23.052;2023-07-13T00:03:45;8.70;;;7.07;;
8333;SDS011;4204;43.004;23.052;2023-07-13T00:06:12;7.57;;;6.87;;
8333;SDS011;4204;43.004;23.052;2023-07-13T00:08:41;7.87;;;7.07;;
8333;SDS011;4204;43.004;23.052;2023-07-13T00:11:09;9.83;;;7.07;;
8333;SDS011;4204;43.004;23.052;2023-07-13T00:13:37;8.50;;;7.57;;
8333;SDS011;4204;43.004;23.052;2023-07-13T00:16:05;9.37;;;7.83;;
8333;SDS011;4204;43.004;23.052;2023-07-13T00:18:33;10.87;;;7.90;;
8333;SDS011;4204;43.004;23.052;2023-07-13T00:21:01;9.83;;;7.90;;
8333;SDS011;4204;43.004;23.052;2023-07-13T00:23:31;7.73;;;6.90;;
8333;SDS011;4204;43.004;23.052;2023-07-13T00:26:02;7.60;;;6.90;;
8333;SDS011;4204;43.004;23.052;2023-07-13T00:28:31;8.47;;;7.57;;
8333;SDS011;4204;43.004;23.052;2023-07-13T00:31:00;9.40;;;6.97;;
8333;SDS011;4204;43.004;23.052;2023-07-13T00:33:28;9.10;;;7.30;;
8333;SDS011;4204;43.004;23.052;2023-07-13T00:35:57;9.33;;;7.80;;
8333;SDS011;4204;43.004;23.052;2023-07-13T00:38:26;7.87;;;7.07;;
8333;SDS011;4204;43.004;23.052;2023-07-13T00:40:54;10.03;;;6.93;;
8333;SDS011;4204;43.004;23.052;2023-07-13T00:43:25;8.23;;;6.73;;
8333;SDS011;4204;43.004;23.052;2023-07-13T00:48:52;9.23;;;7.97;;
8333;SDS011;4204;43.004;23.052;2023-07-13T00:51:24;8.00;;;6.40;;
8333;SDS011;4204;43.004;23.052;2023-07-13T00:53:56;8.07;;;7.27;;
8333;SDS011;4204;43.004;23.052;2023-07-13T00:56:27;12.40;;;7.63;;
8333;SDS011;4204;43.004;23.052;2023-07-13T00:58:57;8.30;;;7.43;;
8333;SDS011;4204;43.004;23.052;2023-07-13T01:01:27;8.60;;;7.63;;
8333;SDS011;4204;43.004;23.052;2023-07-13T01:03:55;8.80;;;7.10;;
8333;SDS011;4204;43.004;23.052;2023-07-13T01:06:23;9.83;;;7.43;;
8333;SDS011;4204;43.004;23.052;2023-07-13T01:08:51;10.20;;;7.43;;
8333;SDS011;4204;43.004;23.052;2023-07-13T01:11:19;10.10;;;7.47;;
8333;SDS011;4204;43.004;23.052;2023-07-13T01:13:48;8.23;;;7.43;;
8333;SDS011;4204;43.004;23.052;2023-07-13T01:16:19;8.87;;;7.67;;
8333;SDS011;4204;43.004;23.052;2023-07-13T01:18:51;9.63;;;7.30;;
8333;SDS011;4204;43.004;23.052;2023-07-13T01:21:20;8.83;;;7.63;;
8333;SDS011;4204;43.004;23.052;2023-07-13T01:23:48;10.27;;;7.73;;
8333;SDS011;4204;43.004;23.052;2023-07-13T01:26:15;8.00;;;7.20;;
8333;SDS011;4204;43.004;23.052;2023-07-13T01:28:44;10.27;;;7.90;;
8333;SDS011;4204;43.004;23.052;2023-07-13T01:31:12;11.73;;;7.57;;
8333;SDS011;4204;43.004;23.052;2023-07-13T01:33:39;9.73;;;7.00;;
8333;SDS011;4204;43.004;23.052;2023-07-13T01:36:08;10.00;;;7.70;;
8333;SDS011;4204;43.004;23.052;2023-07-13T01:38:39;8.67;;;7.70;;
8333;SDS011;4204;43.004;23.052;2023-07-13T01:41:07;8.17;;;7.23;;
8333;SDS011;4204;43.004;23.052;2023-07-13T01:43:35;8.40;;;7.03;;
8333;SDS011;4204;43.004;23.052;2023-07-13T01:46:02;8.87;;;7.13;;
8333;SDS011;4204;43.004;23.052;2023-07-13T01:48:30;8.77;;;7.23;;
8333;SDS011;4204;43.004;23.052;2023-07-13T01:50:58;8.10;;;7.10;;
8333;SDS011;4204;43.004;23.052;2023-07-13T01:53:26;8.33;;;7.53;;
8333;SDS011;4204;43.004;23.052;2023-07-13T01:55:55;8.70;;;7.10;;
8333;SDS011;4204;43.004;23.052;2023-07-13T01:58:21;8.43;;;6.90;;
8333;SDS011;4204;43.004;23.052;2023-07-13T02:00:49;7.70;;;6.90;;
8333;SDS011;4204;43.004;23.052;2023-07-13T02:03:18;10.77;;;7.57;;
8333;SDS011;4204;43.004;23.052;2023-07-13T02:05:45;8.93;;;7.07;;
8333;SDS011;4204;43.004;23.052;2023-07-13T02:08:13;8.33;;;7.30;;
8333;SDS011;4204;43.004;23.052;2023-07-13T02:10:41;8.37;;;7.20;;
8333;SDS011;4204;43.004;23.052;2023-07-13T02:13:10;8.63;;;7.30;;
8333;SDS011;4204;43.004;23.052;2023-07-13T02:15:38;12.93;;;7.37;;
8333;SDS011;4204;43.004;23.052;2023-07-13T02:18:07;9.23;;;7.07;;
8333;SDS011;4204;43.004;23.052;2023-07-13T02:20:34;8.20;;;6.87;;
8333;SDS011;4204;43.004;23.052;2023-07-13T02:23:02;8.57;;;7.73;;
8333;SDS011;4204;43.004;23.052;2023-07-13T02:25:30;7.83;;;7.03;;
8333;SDS011;4204;43.004;23.052;2023-07-13T02:27:58;8.00;;;7.20;;
8333;SDS011;4204;43.004;23.052;2023-07-13T02:30:27;11.83;;;7.10;;
8333;SDS011;4204;43.004;23.052;2023-07-13T02:32:55;10.17;;;7.17;;
8333;SDS011;4204;43.004;23.052;2023-07-13T02:35:23;8.63;;;6.77;;
8333;SDS011;4204;43.004;23.052;2023-07-13T02:37:51;9.93;;;6.83;;
8333;SDS011;4204;43.004;23.052;2023-07-13T02:40:18;9.17;;;6.93;;
8333;SDS011;4204;43.004;23.052;2023-07-13T02:42:47;8.63;;;6.80;;
8333;SDS011;4204;43.004;23.052;2023-07-13T02:45:14;9.53;;;7.00;;
8333;SDS011;4204;43.004;23.052;2023-07-13T02:47:44;9.13;;;6.97;;
8333;SDS011;4204;43.004;23.052;2023-07-13T02:50:12;7.80;;;6.80;;
8333;SDS011;4204;43.004;23.052;2023-07-13T02:52:39;7.57;;;6.73;;
8333;SDS011;4204;43.004;23.052;2023-07-13T02:55:07;8.77;;;7.23;;
8333;SDS011;4204;43.004;23.052;2023-07-13T02:57:36;8.40;;;7.00;;
8333;SDS011;4204;43.004;23.052;2023-07-13T03:00:04;9.30;;;7.10;;
8333;SDS011;4204;43.004;23.052;2023-07-13T03:02:33;6.97;;;6.27;;
8333;SDS011;4204;43.004;23.052;2023-07-13T03:05:04;6.83;;;6.03;;
8333;SDS011;4204;43.004;23.052;2023-07-13T03:07:32;9.57;;;6.90;;
8333;SDS011;4204;43.004;23.052;2023-07-13T03:10:00;8.13;;;6.47;;
8333;SDS011;4204;43.004;23.052;2023-07-13T03:12:38;9.10;;;6.87;;
8333;SDS011;4204;43.004;23.052;2023-07-13T03:15:10;9.43;;;6.67;;
8333;SDS011;4204;43.004;23.052;2023-07-13T03:17:42;9.00;;;6.73;;
8333;SDS011;4204;43.004;23.052;2023-07-13T03:20:11;8.63;;;6.87;;
8333;SDS011;4204;43.004;23.052;2023-07-13T03:22:39;9.50;;;6.70;;
8333;SDS011;4204;43.004;23.052;2023-07-13T03:25:07;10.33;;;7.43;;
8333;SDS011;4204;43.004;23.052;2023-07-13T03:27:35;8.30;;;6.40;;
8333;SDS011;4204;43.004;23.052;2023-07-13T03:30:05;8.83;;;6.83;;
8333;SDS011;4204;43.004;23.052;2023-07-13T03:32:35;7.40;;;6.60;;
8333;SDS011;4204;43.004;23.052;2023-07-13T03:35:03;6.90;;;6.23;;
8333;SDS011;4204;43.004;23.052;2023-07-13T03:37:33;7.80;;;6.33;;
8333;SDS011;4204;43.004;23.052;2023-07-13T03:40:01;7.73;;;6.57;;
8333;SDS011;4204;43.004;23.052;2023-07-13T03:42:30;8.03;;;6.90;;
8333;SDS011;4204;43.004;23.052;2023-07-13T03:44:58;7.53;;;6.50;;
8333;SDS011;4204;43.004;23.052;2023-07-13T03:47:26;8.67;;;7.23;;
8333;SDS011;4204;43.004;23.052;2023-07-13T03:49:54;9.07;;;7.10;;
8333;SDS011;4204;43.004;23.052;2023-07-13T03:52:22;13.63;;;7.77;;
8333;SDS011;4204;43.004;23.052;2023-07-13T03:54:52;7.97;;;7.17;;
8333;SDS011;4204;43.004;23.052;2023-07-13T03:57:21;8.63;;;7.00;;
8333;SDS011;4204;43.004;23.052;2023-07-13T03:59:49;8.17;;;7.23;;
8333;SDS011;4204;43.004;23.052;2023-07-13T04:02:17;10.30;;;6.60;;
8333;SDS011;4204;43.004;23.052;2023-07-13T04:04:45;9.07;;;6.23;;
8333;SDS011;4204;43.004;23.052;2023-07-13T04:07:13;11.47;;;7.30;;
8333;SDS011;4204;43.004;23.052;2023-07-13T04:09:41;7.77;;;6.97;;
8333;SDS011;4204;43.004;23.052;2023-07-13T04:12:11;9.40;;;7.73;;
8333;SDS011;4204;43.004;23.052;2023-07-13T04:14:40;9.73;;;6.57;;
8333;SDS011;4204;43.004;23.052;2023-07-13T04:17:07;8.97;;;7.33;;
8333;SDS011;4204;43.004;23.052;2023-07-13T04:19:35;10.27;;;6.83;;
8333;SDS011;4204;43.004;23.052;2023-07-13T04:22:03;8.77;;;7.13;;
8333;SDS011;4204;43.004;23.052;2023-07-13T04:24:31;7.77;;;6.60;;
8333;SDS011;4204;43.004;23.052;2023-07-13T04:26:59;9.60;;;7.27;;
8333;SDS011;4204;43.004;23.052;2023-07-13T04:29:30;9.40;;;7.53;;
8333;SDS011;4204;43.004;23.052;2023-07-13T04:31:58;7.07;;;6.47;;
8333;SDS011;4204;43.004;23.052;2023-07-13T04:34:25;8.33;;;7.07;;
8333;SDS011;4204;43.004;23.052;2023-07-13T04:36:53;8.30;;;7.23;;
8333;SDS011;4204;43.004;23.052;2023-07-13T04:39:21;9.47;;;7.50;;
8333;SDS011;4204;43.004;23.052;2023-07-13T04:41:48;8.03;;;7.33;;
8333;SDS011;4204;43.004;23.052;2023-07-13T04:44:16;8.57;;;7.77;;
8333;SDS011;4204;43.004;23.052;2023-07-13T04:46:45;9.73;;;8.50;;
8333;SDS011;4204;43.004;23.052;2023-07-13T04:49:13;12.27;;;9.60;;
8333;SDS011;4204;43.004;23.052;2023-07-13T04:51:40;10.47;;;8.27;;
8333;SDS011;4204;43.004;23.052;2023-07-13T04:54:08;9.17;;;8.20;;
8333;SDS011;4204;43.004;23.052;2023-07-13T04:56:36;8.30;;;7.27;;
8333;SDS011;4204;43.004;23.052;2023-07-13T04:59:04;8.53;;;7.67;;
8333;SDS011;4204;43.004;23.052;2023-07-13T05:01:31;9.73;;;7.70;;
8333;SDS011;4204;43.004;23.052;2023-07-13T05:04:01;11.57;;;8.87;;
8333;SDS011;4204;43.004;23.052;2023-07-13T05:06:29;9.23;;;8.23;;
8333;SDS011;4204;43.004;23.052;2023-07-13T05:08:57;10.60;;;8.30;;
8333;SDS011;4204;43.004;23.052;2023-07-13T05:11:25;11.33;;;8.90;;
8333;SDS011;4204;43.004;23.052;2023-07-13T05:13:53;9.13;;;8.20;;
8333;SDS011;4204;43.004;23.052;2023-07-13T05:16:21;11.23;;;9.17;;
8333;SDS011;4204;43.004;23.052;2023-07-13T05:18:48;10.73;;;9.40;;
8333;SDS011;4204;43.004;23.052;2023-07-13T05:21:17;12.03;;;9.73;;
8333;SDS011;4204;43.004;23.052;2023-07-13T05:23:47;10.13;;;9.00;;
8333;SDS011;4204;43.004;23.052;2023-07-13T05:26:14;13.67;;;9.50;;
8333;SDS011;4204;43.004;23.052;2023-07-13T05:28:42;10.67;;;9.47;;
8333;SDS011;4204;43.004;23.052;2023-07-13T05:31:10;10.57;;;9.47;;
8333;SDS011;4204;43.004;23.052;2023-07-13T05:33:38;11.40;;;9.47;;
8333;SDS011;4204;43.004;23.052;2023-07-13T05:36:06;12.00;;;10.70;;
8333;SDS011;4204;43.004;23.052;2023-07-13T05:38:35;11.50;;;10.33;;
8333;SDS011;4204;43.004;23.052;2023-07-13T05:41:03;12.90;;;10.70;;
8333;SDS011;4204;43.004;23.052;2023-07-13T05:43:31;10.93;;;9.77;;
8333;SDS011;4204;43.004;23.052;2023-07-13T05:45:58;13.63;;;10.10;;
8333;SDS011;4204;43.004;23.052;2023-07-13T05:48:28;11.77;;;10.57;;
8333;SDS011;4204;43.004;23.052;2023-07-13T05:50:56;12.60;;;10.03;;
8333;SDS011;4204;43.004;23.052;2023-07-13T05:53:24;13.40;;;10.13;;
8333;SDS011;4204;43.004;23.052;2023-07-13T05:55:53;13.43;;;10.07;;
8333;SDS011;4204;43.004;23.052;2023-07-13T05:58:21;12.33;;;10.73;;
8333;SDS011;4204;43.004;23.052;2023-07-13T06:00:57;12.03;;;10.20;;
8333;SDS011;4204;43.004;23.052;2023-07-13T06:03:27;11.13;;;9.83;;
8333;SDS011;4204;43.004;23.052;2023-07-13T06:05:55;14.50;;;9.63;;
8333;SDS011;4204;43.004;23.052;2023-07-13T06:08:23;11.40;;;10.17;;
8333;SDS011;4204;43.004;23.052;2023-07-13T06:10:52;10.57;;;9.47;;
8333;SDS011;4204;43.004;23.052;2023-07-13T06:13:20;13.87;;;9.30;;
8333;SDS011;4204;43.004;23.052;2023-07-13T06:15:48;10.63;;;9.17;;
8333;SDS011;4204;43.004;23.052;2023-07-13T06:18:16;11.67;;;8.80;;
8333;SDS011;4204;43.004;23.052;2023-07-13T06:20:44;11.30;;;8.73;;
8333;SDS011;4204;43.004;23.052;2023-07-13T06:23:11;13.00;;;9.80;;
8333;SDS011;4204;43.004;23.052;2023-07-13T06:25:39;11.37;;;9.43;;
8333;SDS011;4204;43.004;23.052;2023-07-13T06:28:09;15.57;;;9.93;;
8333;SDS011;4204;43.004;23.052;2023-07-13T06:30:37;10.23;;;8.90;;
8333;SDS011;4204;43.004;23.052;2023-07-13T06:33:05;11.17;;;9.77;;
8333;SDS011;4204;43.004;23.052;2023-07-13T06:35:33;14.40;;;9.60;;
8333;SDS011;4204;43.004;23.052;2023-07-13T06:38:01;12.40;;;9.00;;
8333;SDS011;4204;43.004;23.052;2023-07-13T06:40:29;9.70;;;8.67;;
8333;SDS011;4204;43.004;23.052;2023-07-13T06:42:57;11.07;;;9.97;;
8333;SDS011;4204;43.004;23.052;2023-07-13T06:45:26;10.97;;;9.87;;
8333;SDS011;4204;43.004;23.052;2023-07-13T06:47:54;10.00;;;9.00;;
8333;SDS011;4204;43.004;23.052;2023-07-13T06:50:21;11.43;;;9.57;;
8333;SDS011;4204;43.004;23.052;2023-07-13T06:52:49;9.60;;;8.27;;
8333;SDS011;4204;43.004;23.052;2023-07-13T06:55:17;14.30;;;8.63;;
8333;SDS011;4204;43.004;23.052;2023-07-13T07:00:44;8.50;;;6.77;;
8333;SDS011;4204;43.004;23.052;2023-07-13T07:03:11;10.57;;;7.93;;
8333;SDS011;4204;43.004;23.052;2023-07-13T07:05:40;8.60;;;7.57;;
8333;SDS011;4204;43.004;23.052;2023-07-13T07:08:07;8.50;;;7.57;;
8333;SDS011;4204;43.004;23.052;2023-07-13T07:10:36;10.63;;;6.97;;
8333;SDS011;4204;43.004;23.052;2023-07-13T07:13:03;9.10;;;7.10;;
8333;SDS011;4204;43.004;23.052;2023-07-13T07:15:31;11.43;;;7.30;;
8333;SDS011;4204;43.004;23.052;2023-07-13T07:18:00;8.27;;;6.67;;
8333;SDS011;4204;43.004;23.052;2023-07-13T07:20:28;7.23;;;6.50;;
8333;SDS011;4204;43.004;23.052;2023-07-13T07:22:56;7.10;;;6.40;;
8333;SDS011;4204;43.004;23.052;2023-07-13T07:25:24;26.53;;;16.57;;
8333;SDS011;4204;43.004;23.052;2023-07-13T07:27:52;18.03;;;11.17;;
8333;SDS011;4204;43.004;23.052;2023-07-13T07:30:19;7.53;;;6.37;;
8333;SDS011;4204;43.004;23.052;2023-07-13T07:32:47;7.17;;;6.40;;
8333;SDS011;4204;43.004;23.052;2023-07-13T07:35:16;10.83;;;6.70;;
8333;SDS011;4204;43.004;23.052;2023-07-13T07:37:44;6.80;;;5.70;;
8333;SDS011;4204;43.004;23.052;2023-07-13T07:40:11;7.13;;;5.97;;
8333;SDS011;4204;43.004;23.052;2023-07-13T07:42:39;7.57;;;6.00;;
8333;SDS011;4204;43.004;23.052;2023-07-13T07:45:07;12.13;;;6.87;;
8333;SDS011;4204;43.004;23.052;2023-07-13T07:47:37;9.37;;;5.87;;
8333;SDS011;4204;43.004;23.052;2023-07-13T07:50:05;12.20;;;5.93;;
8333;SDS011;4204;43.004;23.052;2023-07-13T07:52:35;8.57;;;5.97;;
8333;SDS011;4204;43.004;23.052;2023-07-13T07:55:03;9.57;;;6.00;;
8333;SDS011;4204;43.004;23.052;2023-07-13T07:57:32;8.27;;;5.63;;
8333;SDS011;4204;43.004;23.052;2023-07-13T08:00:00;7.83;;;5.77;;
8333;SDS011;4204;43.004;23.052;2023-07-13T08:02:28;8.23;;;6.20;;
8333;SDS011;4204;43.004;23.052;2023-07-13T08:04:56;6.60;;;5.90;;
8333;SDS011;4204;43.004;23.052;2023-07-13T08:07:24;7.43;;;5.97;;
8333;SDS011;4204;43.004;23.052;2023-07-13T08:09:53;7.53;;;5.90;;
8333;SDS011;4204;43.004;23.052;2023-07-13T08:12:21;8.13;;;5.47;;
8333;SDS011;4204;43.004;23.052;2023-07-13T08:14:49;7.47;;;5.83;;
8333;SDS011;4204;43.004;23.052;2023-07-13T08:17:19;6.73;;;5.87;;
8333;SDS011;4204;43.004;23.052;2023-07-13T08:19:47;8.27;;;5.80;;
8333;SDS011;4204;43.004;23.052;2023-07-13T08:22:15;11.90;;;6.27;;
8333;SDS011;4204;43.004;23.052;2023-07-13T08:24:42;6.10;;;5.40;;
8333;SDS011;4204;43.004;23.052;2023-07-13T08:27:11;8.70;;;5.60;;
8333;SDS011;4204;43.004;23.052;2023-07-13T08:29:39;7.80;;;5.30;;
8333;SDS011;4204;43.004;23.052;2023-07-13T08:32:08;10.30;;;5.03;;
8333;SDS011;4204;43.004;23.052;2023-07-13T08:34:37;10.20;;;5.80;;
8333;SDS011;4204;43.004;23.052;2023-07-13T08:37:06;8.03;;;5.13;;
8333;SDS011;4204;43.004;23.052;2023-07-13T08:39:33;5.73;;;4.83;;
8333;SDS011;4204;43.004;23.052;2023-07-13T08:42:02;8.83;;;5.23;;
8333;SDS011;4204;43.004;23.052;2023-07-13T08:44:37;8.87;;;5.30;;
8333;SDS011;4204;43.004;23.052;2023-07-13T08:47:12;5.80;;;5.20;;
8333;SDS011;4204;43.004;23.052;2023-07-13T08:49:42;6.37;;;5.53;;
8333;SDS011;4204;43.004;23.052;2023-07-13T08:52:13;5.90;;;4.87;;
8333;SDS011;4204;43.004;23.052;2023-07-13T08:54:57;7.10;;;4.70;;
8333;SDS011;4204;43.004;23.052;2023-07-13T08:57:32;6.37;;;4.90;;
8333;SDS011;4204;43.004;23.052;2023-07-13T09:00:03;6.03;;;4.93;;
8333;SDS011;4204;43.004;23.052;2023-07-13T09:02:35;5.10;;;4.60;;
8333;SDS011;4204;43.004;23.052;2023-07-13T09:05:10;7.03;;;5.10;;
8333;SDS011;4204;43.004;23.052;2023-07-13T09:07:48;6.67;;;4.93;;
8333;SDS011;4204;43.004;23.052;2023-07-13T09:10:27;7.83;;;5.07;;
8333;SDS011;4204;43.004;23.052;2023-07-13T09:13:04;5.43;;;4.73;;
8333;SDS011;4204;43.004;23.052;2023-07-13T09:15:43;7.67;;;4.77;;
8333;SDS011;4204;43.004;23.052;2023-07-13T09:18:13;5.50;;;4.67;;
8333;SDS011;4204;43.004;23.052;2023-07-13T09:20:48;7.83;;;5.07;;
8333;SDS011;4204;43.004;23.052;2023-07-13T09:23:21;10.97;;;5.03;;
8333;SDS011;4204;43.004;23.052;2023-07-13T09:25:51;5.97;;;4.90;;
8333;SDS011;4204;43.004;23.052;2023-07-13T09:28:22;7.77;;;5.20;;
8333;SDS011;4204;43.004;23.052;2023-07-13T09:30:56;5.43;;;4.90;;
8333;SDS011;4204;43.004;23.052;2023-07-13T09:33:28;5.83;;;5.00;;
8333;SDS011;4204;43.004;23.052;2023-07-13T09:35:57;7.17;;;5.03;;
8333;SDS011;4204;43.004;23.052;2023-07-13T09:38:26;7.20;;;4.90;;
8333;SDS011;4204;43.004;23.052;2023-07-13T09:40:59;6.30;;;5.30;;
8333;SDS011;4204;43.004;23.052;2023-07-13T09:43:36;6.87;;;5.27;;
8333;SDS011;4204;43.004;23.052;2023-07-13T09:46:07;6.00;;;5.40;;
8333;SDS011;4204;43.004;23.052;2023-07-13T09:48:48;9.53;;;5.40;;
8333;SDS011;4204;43.004;23.052;2023-07-13T09:51:16;8.00;;;5.30;;
8333;SDS011;4204;43.004;23.052;2023-07-13T09:53:44;5.97;;;4.87;;
8333;SDS011;4204;43.004;23.052;2023-07-13T09:56:21;6.73;;;4.90;;
8333;SDS011;4204;43.004;23.052;2023-07-13T09:58:50;7.30;;;5.27;;
8333;SDS011;4204;43.004;23.052;2023-07-13T10:01:19;8.30;;;5.33;;
8333;SDS011;4204;43.004;23.052;2023-07-13T10:03:59;8.47;;;5.57;;
8333;SDS011;4204;43.004;23.052;2023-07-13T10:06:27;13.10;;;8.40;;
8333;SDS011;4204;43.004;23.052;2023-07-13T10:08:56;11.17;;;8.00;;
8333;SDS011;4204;43.004;23.052;2023-07-13T10:14:21;5.80;;;5.20;;
8333;SDS011;4204;43.004;23.052;2023-07-13T10:16:56;7.27;;;6.30;;
8333;SDS011;4204;43.004;23.052;2023-07-13T10:19:29;6.00;;;5.20;;
8333;SDS011;4204;43.004;23.052;2023-07-13T10:22:01;9.02;;;6.28;;
8333;SDS011;4204;43.004;23.052;2023-07-13T10:24:31;8.90;;;6.97;;
8333;SDS011;4204;43.004;23.052;2023-07-13T10:27:01;9.20;;;6.00;;
8333;SDS011;4204;43.004;23.052;2023-07-13T10:29:45;6.13;;;5.40;;
8333;SDS011;4204;43.004;23.052;2023-07-13T10:32:17;6.72;;;5.50;;
8333;SDS011;4204;43.004;23.052;2023-07-13T10:34:48;6.97;;;5.07;;
8333;SDS011;4204;43.004;23.052;2023-07-13T10:37:19;5.95;;;5.35;;
8333;SDS011;4204;43.004;23.052;2023-07-13T10:39:51;8.68;;;5.57;;
8333;SDS011;4204;43.004;23.052;2023-07-13T10:42:26;6.40;;;5.70;;
8333;SDS011;4204;43.004;23.052;2023-07-13T10:44:57;6.73;;;5.23;;
8333;SDS011;4204;43.004;23.052;2023-07-13T10:47:26;8.43;;;5.47;;
8333;SDS011;4204;43.004;23.052;2023-07-13T10:49:56;8.50;;;5.80;;
8333;SDS011;4204;43.004;23.052;2023-07-13T10:52:40;6.47;;;5.88;;
8333;SDS011;4204;43.004;23.052;2023-07-13T10:58:02;7.53;;;6.18;;
8333;SDS011;4204;43.004;23.052;2023-07-13T11:00:43;6.10;;;5.43;;
8333;SDS011;4204;43.004;23.052;2023-07-13T11:03:17;6.15;;;5.55;;
8333;SDS011;4204;43.004;23.052;2023-07-13T11:05:48;5.83;;;5.23;;
8333;SDS011;4204;43.004;23.052;2023-07-13T11:08:31;9.47;;;6.00;;
8333;SDS011;4204;43.004;23.052;2023-07-13T11:11:02;6.43;;;5.83;;
8333;SDS011;4204;43.004;23.052;2023-07-13T11:13:39;8.37;;;5.37;;
8333;SDS011;4204;43.004;23.052;2023-07-13T11:16:35;6.20;;;5.40;;
8333;SDS011;4204;43.004;23.052;2023-07-13T11:19:23;6.60;;;6.00;;
8333;SDS011;4204;43.004;23.052;2023-07-13T11:22:09;9.30;;;5.88;;
8333;SDS011;4204;43.004;23.052;2023-07-13T11:24:49;10.10;;;6.40;;
8333;SDS011;4204;43.004;23.052;2023-07-13T11:30:23;6.93;;;6.18;;
8333;SDS011;4204;43.004;23.052;2023-07-13T11:33:09;6.82;;;6.13;;
8333;SDS011;4204;43.004;23.052;2023-07-13T11:35:44;6.53;;;5.82;;
8333;SDS011;4204;43.004;23.052;2023-07-13T11:38:20;8.23;;;6.03;;
8333;SDS011;4204;43.004;23.052;2023-07-13T11:40:51;6.75;;;5.90;;
8333;SDS011;4204;43.004;23.052;2023-07-13T11:43:22;8.98;;;6.00;;
8333;SDS011;4204;43.004;23.052;2023-07-13T11:45:50;9.20;;;6.05;;
8333;SDS011;4204;43.004;23.052;2023-07-13T11:48:23;8.90;;;6.28;;
8333;SDS011;4204;43.004;23.052;2023-07-13T11:50:56;6.65;;;6.05;;
8333;SDS011;4204;43.004;23.052;2023-07-13T11:53:27;8.85;;;6.03;;
8333;SDS011;4204;43.004;23.052;2023-07-13T11:55:56;7.88;;;6.05;;
8333;SDS011;4204;43.004;23.052;2023-07-13T11:58:25;6.60;;;5.95;;
8333;SDS011;4204;43.004;23.052;2023-07-13T12:00:55;6.55;;;5.85;;
8333;SDS011;4204;43.004;23.052;2023-07-13T12:03:27;6.63;;;5.78;;
8333;SDS011;4204;43.004;23.052;2023-07-13T12:05:58;7.82;;;6.10;;
8333;SDS011;4204;43.004;23.052;2023-07-13T12:08:28;7.72;;;6.32;;
8333;SDS011;4204;43.004;23.052;2023-07-13T12:10:57;8.52;;;7.10;;
8333;SDS011;4204;43.004;23.052;2023-07-13T12:13:34;8.23;;;6.43;;
8333;SDS011;4204;43.004;23.052;2023-07-13T12:16:11;7.07;;;6.38;;
8333;SDS011;4204;43.004;23.052;2023-07-13T12:18:44;7.53;;;6.38;;
8333;SDS011;4204;43.004;23.052;2023-07-13T12:21:18;7.30;;;6.15;;
8333;SDS011;4204;43.004;23.052;2023-07-13T12:23:48;7.57;;;5.93;;
8333;SDS011;4204;43.004;23.052;2023-07-13T12:26:16;7.07;;;6.38;;
8333;SDS011;4204;43.004;23.052;2023-07-13T12:28:46;7.32;;;6.00;;
8333;SDS011;4204;43.004;23.052;2023-07-13T12:31:24;7.45;;;5.85;;
8333;SDS011;4204;43.004;23.052;2023-07-13T12:33:56;6.72;;;6.00;;
8333;SDS011;4204;43.004;23.052;2023-07-13T12:36:26;8.50;;;6.10;;
8333;SDS011;4204;43.004;23.052;2023-07-13T12:39:00;7.95;;;6.20;;
8333;SDS011;4204;43.004;23.052;2023-07-13T12:41:38;6.75;;;6.00;;
8333;SDS011;4204;43.004;23.052;2023-07-13T12:44:09;9.18;;;6.28;;
8333;SDS011;4204;43.004;23.052;2023-07-13T12:46:38;7.70;;;6.47;;
8333;SDS011;4204;43.004;23.052;2023-07-13T12:49:06;8.50;;;6.93;;
8333;SDS011;4204;43.004;23.052;2023-07-13T12:51:37;8.57;;;5.97;;
8333;SDS011;4204;43.004;23.052;2023-07-13T12:54:06;7.68;;;6.43;;
8333;SDS011;4204;43.004;23.052;2023-07-13T12:56:40;7.70;;;6.50;;
8333;SDS011;4204;43.004;23.052;2023-07-13T12:59:08;7.13;;;6.28;;
8333;SDS011;4204;43.004;23.052;2023-07-13T13:01:44;6.15;;;5.50;;
8333;SDS011;4204;43.004;23.052;2023-07-13T13:04:13;9.43;;;6.47;;
8333;SDS011;4204;43.004;23.052;2023-07-13T13:06:43;8.90;;;6.18;;
8333;SDS011;4204;43.004;23.052;2023-07-13T13:09:11;8.90;;;6.30;;
8333;SDS011;4204;43.004;23.052;2023-07-13T13:11:40;8.85;;;6.47;;
8333;SDS011;4204;43.004;23.052;2023-07-13T13:14:09;7.70;;;5.95;;
8333;SDS011;4204;43.004;23.052;2023-07-13T13:16:39;9.35;;;6.47;;
8333;SDS011;4204;43.004;23.052;2023-07-13T13:19:14;9.40;;;6.65;;
8333;SDS011;4204;43.004;23.052;2023-07-13T13:21:45;8.10;;;6.50;;
8333;SDS011;4204;43.004;23.052;2023-07-13T13:24:14;8.68;;;6.25;;
8333;SDS011;4204;43.004;23.052;2023-07-13T13:26:44;8.52;;;6.28;;
8333;SDS011;4204;43.004;23.052;2023-07-13T13:29:12;8.88;;;6.05;;
8333;SDS011;4204;43.004;23.052;2023-07-13T13:31:42;7.90;;;6.22;;
8333;SDS011;4204;43.004;23.052;2023-07-13T13:34:10;9.07;;;6.10;;
8333;SDS011;4204;43.004;23.052;2023-07-13T13:36:39;9.20;;;6.28;;
8333;SDS011;4204;43.004;23.052;2023-07-13T13:39:16;7.97;;;6.30;;
8333;SDS011;4204;43.004;23.052;2023-07-13T13:41:47;10.52;;;6.40;;
8333;SDS011;4204;43.004;23.052;2023-07-13T13:44:15;10.07;;;6.82;;
8333;SDS011;4204;43.004;23.052;2023-07-13T13:46:44;8.98;;;6.25;;
8333;SDS011;4204;43.004;23.052;2023-07-13T13:49:15;7.07;;;6.38;;
8333;SDS011;4204;43.004;23.052;2023-07-13T13:51:46;7.35;;;6.65;;
8333;SDS011;4204;43.004;23.052;2023-07-13T13:54:14;9.82;;;6.90;;
8333;SDS011;4204;43.004;23.052;2023-07-13T13:56:45;9.32;;;6.13;;
8333;SDS011;4204;43.004;23.052;2023-07-13T13:59:14;9.77;;;6.95;;
8333;SDS011;4204;43.004;23.052;2023-07-13T14:01:43;6.50;;;5.90;;
8333;SDS011;4204;43.004;23.052;2023-07-13T14:04:15;6.25;;;5.70;;
8333;SDS011;4204;43.004;23.052;2023-07-13T14:06:45;8.20;;;6.63;;
8333;SDS011;4204;43.004;23.052;2023-07-13T14:09:16;9.07;;;5.93;;
8333;SDS011;4204;43.004;23.052;2023-07-13T14:11:46;7.70;;;5.75;;
8333;SDS011;4204;43.004;23.052;2023-07-13T14:14:16;7.55;;;6.43;;
8333;SDS011;4204;43.004;23.052;2023-07-13T14:16:48;10.10;;;8.32;;
8333;SDS011;4204;43.004;23.052;2023-07-13T14:19:19;8.88;;;6.78;;
8333;SDS011;4204;43.004;23.052;2023-07-13T14:21:47;7.25;;;6.45;;
8333;SDS011;4204;43.004;23.052;2023-07-13T14:24:15;9.60;;;6.55;;
8333;SDS011;4204;43.004;23.052;2023-07-13T14:26:47;11.32;;;6.40;;
8333;SDS011;4204;43.004;23.052;2023-07-13T14:29:17;6.72;;;6.03;;
8333;SDS011;4204;43.004;23.052;2023-07-13T14:31:48;10.30;;;6.60;;
8333;SDS011;4204;43.004;23.052;2023-07-13T14:34:15;7.35;;;6.38;;
8333;SDS011;4204;43.004;23.052;2023-07-13T14:36:44;10.57;;;6.57;;
8333;SDS011;4204;43.004;23.052;2023-07-13T14:39:16;7.72;;;6.68;;
8333;SDS011;4204;43.004;23.052;2023-07-13T14:41:45;8.63;;;6.97;;
8333;SDS011;4204;43.004;23.052;2023-07-13T14:44:17;7.60;;;6.82;;
8333;SDS011;4204;43.004;23.052;2023-07-13T14:46:49;8.32;;;6.68;;
8333;SDS011;4204;43.004;23.052;2023-07-13T14:49:21;10.85;;;6.88;;
8333;SDS011;4204;43.004;23.052;2023-07-13T14:51:52;9.13;;;6.78;;
8333;SDS011;4204;43.004;23.052;2023-07-13T14:54:21;8.07;;;6.30;;
8333;SDS011;4204;43.004;23.052;2023-07-13T14:56:50;8.50;;;7.03;;
8333;SDS011;4204;43.004;23.052;2023-07-13T14:59:18;8.30;;;6.72;;
8333;SDS011;4204;43.004;23.052;2023-07-13T15:01:46;8.38;;;6.95;;
8333;SDS011;4204;43.004;23.052;2023-07-13T15:04:15;7.90;;;7.05;;
8333;SDS011;4204;43.004;23.052;2023-07-13T15:06:52;7.65;;;6.93;;
8333;SDS011;4204;43.004;23.052;2023-07-13T15:09:21;7.25;;;6.55;;
8333;SDS011;4204;43.004;23.052;2023-07-13T15:11:51;8.48;;;7.03;;
8333;SDS011;4204;43.004;23.052;2023-07-13T15:14:19;7.45;;;6.75;;
8333;SDS011;4204;43.004;23.052;2023-07-13T15:16:48;8.07;;;7.00;;
8333;SDS011;4204;43.004;23.052;2023-07-13T15:19:19;9.82;;;7.25;;
8333;SDS011;4204;43.004;23.052;2023-07-13T15:21:47;7.85;;;6.88;;
8333;SDS011;4204;43.004;23.052;2023-07-13T15:24:16;10.13;;;7.40;;
8333;SDS011;4204;43.004;23.052;2023-07-13T15:26:43;8.10;;;7.22;;
8333;SDS011;4204;43.004;23.052;2023-07-13T15:29:16;9.45;;;7.30;;